Nevada City, CA (95959)

10:25 PM PDT on August 23, 2016 (GMT -0700)
Cement Hill | | Change Station

Elev 2969 ft 39.27 °N, 121.03 °W | Updated 5 seconds ago

Clear
Clear
69.3 °F
Feels Like 69.3 °F
N
0.0
Wind Variable Wind from ESE

Today
High -- | Low -- °F
--% Chance of Precip.
Yesterday
High -- | Low -- °F
Precip. -- in
Pressure 30.16 in
Visibility 10.0 miles
Clouds Clear
Dew Point 45 °F
Humidity 42%
Rainfall 0.00 in
Snow Depth Not available.
6:24 AM 7:47 PM
Waning Gibbous, 61% visible
METAR KGOO 240520Z AUTO 13004KT 10SM CLR 21/07 A3016 RMK AO1
Pressure 30.16 in
Visibility 10.0 miles
Clouds Clear
Dew Point 45 °F
Humidity 42%
Rainfall 0.00 in
Snow Depth Not available.
6:24 AM 7:47 PM
Waning Gibbous, 61% visible
METAR KGOO 240520Z AUTO 13004KT 10SM CLR 21/07 A3016 RMK AO1

10-Day Weather Forecast

Almanac

Astronomy

Aug. 23, 2016 Rise Set
Actual Time
Civil Twilight
Nautical Twilight
Astronomical Twilight
Moon
Length of Visible Light
Length of Day
Tomorrow will be .
, % of the Moon is Illuminated

Today's Extremes

State Highs State Lows

Community

WunderPhotos

Upload Photos

1,934,554 photos uploaded!

WunderBlog® & News

Nearby

Air Quality

  Air Quality AQ Index Pollutant
Not available.

Snow Depth

Station Depth Elevation

Earthquake Activity

City Distance Mag. Time & Date
Minimum magnitude displayed is 2.5.

Coastal Water Temperatures

Place Temperature

Stations

Nearby Weather Stations

Station Location Temp. Windchill Dew Point Humidity Wind Precip. Elev Updated Type
                   

Watches & Warnings

There are currently no watches in effect.